Time;durP1;ratioP1;P1;durP2;ratioP2;P2;SDS_P1;SDS_P2;PMS_P1;PMS_P2;Temp;Humidity;BMP_temperature;BMP_pressure;BME280_temperature;BME280_humidity;BME280_pressure;Samples;Min_cycle;Max_cycle;Signal;HPM_P1;HPM_P2
2023/02/18 00:01:37;;;;;;;4.20;3.00;;;;;;;11.69;67.41;98581.09;230924;1193;139237;-70
2023/02/18 00:06:41;;;;;;;4.20;2.90;;;;;;;11.73;67.83;98572.80;231311;1192;139075;-71
2023/02/18 00:11:44;;;;;;;4.10;3.20;;;;;;;11.75;67.88;98565.50;230998;1196;138934;-73
2023/02/18 00:16:48;;;;;;;4.80;3.10;;;;;;;11.75;68.27;98563.05;231706;1193;138143;-70
2023/02/18 00:21:51;;;;;;;4.80;3.30;;;;;;;11.74;68.39;98564.94;228890;1193;138096;-71
2023/02/18 00:26:55;;;;;;;5.20;3.40;;;;;;;11.75;68.20;98562.34;229093;1197;139138;-71
2023/02/18 00:31:58;;;;;;;5.70;3.30;;;;;;;11.77;67.94;98564.10;231255;1197;138861;-71
2023/02/18 00:37:02;;;;;;;4.60;3.00;;;;;;;11.79;67.98;98557.95;229305;1193;138317;-72
2023/02/18 00:42:05;;;;;;;3.00;2.30;;;;;;;11.76;68.00;98563.65;231383;1192;138685;-70
2023/02/18 00:47:09;;;;;;;3.70;2.60;;;;;;;11.72;68.01;98562.55;233731;1196;138254;-73
2023/02/18 00:52:12;;;;;;;4.70;2.80;;;;;;;11.69;68.28;98560.48;231020;1193;139081;-72
2023/02/18 00:57:16;;;;;;;4.30;2.50;;;;;;;11.70;68.44;98563.95;231524;1192;139490;-69
2023/02/18 01:02:19;;;;;;;5.00;2.60;;;;;;;11.77;67.92;98572.51;231974;1196;138560;-71
2023/02/18 01:07:22;;;;;;;4.30;2.40;;;;;;;11.80;68.01;98592.33;229625;1198;138875;-72
2023/02/18 01:12:26;;;;;;;2.60;2.10;;;;;;;11.72;68.33;98612.45;229436;1193;138639;-69
2023/02/18 01:17:30;;;;;;;3.20;2.20;;;;;;;11.68;68.59;98635.39;230994;1196;138958;-72
2023/02/18 01:22:33;;;;;;;5.90;2.10;;;;;;;11.65;69.19;98653.02;230771;1195;138844;-73
2023/02/18 01:27:37;;;;;;;4.10;2.40;;;;;;;11.36;68.63;98675.84;229523;1198;139285;-73
2023/02/18 01:32:44;;;;;;;4.10;2.40;;;;;;;11.18;68.80;98664.30;230025;1196;138265;-74
2023/02/18 01:37:48;;;;;;;4.70;2.20;;;;;;;11.04;68.32;98659.45;233977;1196;138331;-72
2023/02/18 01:42:52;;;;;;;3.40;2.00;;;;;;;10.93;68.49;98651.34;232156;1193;139146;-71
2023/02/18 01:47:56;;;;;;;2.90;1.80;;;;;;;10.84;66.91;98658.55;235573;1193;138267;-72
2023/02/18 01:53:01;;;;;;;4.80;2.00;;;;;;;10.71;65.59;98667.61;230244;1198;138585;-74
2023/02/18 01:58:06;;;;;;;;;;;;;;;10.61;65.89;98659.04;231495;1196;138470;-73
2023/02/18 02:03:10;;;;;;;3.80;1.90;;;;;;;10.58;65.05;98672.78;229712;1193;124854;-71
2023/02/18 02:08:13;;;;;;;3.30;1.70;;;;;;;10.52;64.46;98671.36;230222;1197;138725;-72
2023/02/18 02:13:42;;;;;;;2.80;1.60;;;;;;;10.48;62.96;98663.83;229469;1194;138287;-71
2023/02/18 02:19:09;;;;;;;5.00;1.80;;;;;;;10.47;62.64;98668.17;230707;1198;138399;-70
2023/02/18 02:24:31;;;;;;;1.80;1.30;;;;;;;10.48;61.30;98672.20;229143;1198;138543;-68
2023/02/18 02:30:00;;;;;;;3.40;1.20;;;;;;;10.41;59.54;98678.14;229362;1199;139156;-72
2023/02/18 02:35:12;;;;;;;3.90;1.20;;;;;;;10.38;58.59;98670.38;231175;1196;138297;-71
2023/02/18 02:40:34;;;;;;;3.20;1.10;;;;;;;10.35;57.03;98679.97;229112;1198;139429;-71
2023/02/18 02:45:54;;;;;;;2.70;0.90;;;;;;;10.26;55.49;98690.33;230039;1197;138212;-73
2023/02/18 02:51:51;;;;;;;1.50;0.80;;;;;;;10.16;54.94;98684.55;230614;1196;138523;-73
2023/02/18 02:57:27;;;;;;;2.40;1.30;;;;;;;10.17;54.78;98695.65;229681;1196;139178;-70
2023/02/18 03:02:38;;;;;;;1.90;0.80;;;;;;;10.18;53.93;98716.91;230765;1199;138604;-72
2023/02/18 03:07:54;;;;;;;1.50;0.80;;;;;;;10.15;52.21;98726.63;230898;1193;138102;-72
2023/02/18 03:13:10;;;;;;;2.10;0.80;;;;;;;10.18;50.35;98739.05;231173;1196;138569;-71
2023/02/18 03:18:20;;;;;;;2.70;0.80;;;;;;;10.17;47.74;98752.04;231221;1196;139202;-73
2023/02/18 03:23:31;;;;;;;1.80;0.60;;;;;;;10.13;46.27;98749.78;229519;1192;138978;-70
2023/02/18 03:28:37;;;;;;;2.50;0.60;;;;;;;10.13;45.86;98754.41;230147;1192;138542;-71
2023/02/18 03:33:50;;;;;;;1.20;0.60;;;;;;;10.15;46.53;98758.52;232846;1193;138933;-72
2023/02/18 03:39:31;;;;;;;1.20;0.50;;;;;;;10.15;46.61;98763.34;228967;1198;139273;-70
2023/02/18 03:44:35;;;;;;;2.10;1.00;;;;;;;10.09;46.56;98765.85;231008;1195;138509;-72
2023/02/18 03:49:38;;;;;;;2.90;0.90;;;;;;;10.10;47.87;98767.93;232990;1193;138447;-73
2023/02/18 03:54:42;;;;;;;2.10;1.00;;;;;;;10.08;48.58;98771.09;230727;1196;139343;-73
2023/02/18 03:59:45;;;;;;;68.80;45.60;;;;;;;10.09;49.90;98772.81;229857;1196;138553;-72
2023/02/18 04:04:49;;;;;;;5.80;2.70;;;;;;;10.13;51.39;98770.01;229946;1193;139679;-70
2023/02/18 04:09:52;;;;;;;11.20;6.70;;;;;;;10.13;52.98;98781.54;230721;1197;139629;-71
2023/02/18 04:14:56;;;;;;;3.80;1.30;;;;;;;10.11;53.29;98783.27;229876;1200;138281;-73
2023/02/18 04:19:59;;;;;;;5.20;1.30;;;;;;;10.07;52.86;98786.92;229506;1195;138348;-72
2023/02/18 04:25:03;;;;;;;3.30;1.00;;;;;;;10.06;51.41;98787.30;230079;1197;138492;-72
2023/02/18 04:30:07;;;;;;;3.90;1.30;;;;;;;10.04;51.05;98790.64;230322;1198;139510;-72
2023/02/18 04:35:11;;;;;;;1.70;0.90;;;;;;;10.02;50.71;98792.89;230743;1194;138304;-73
2023/02/18 04:40:15;;;;;;;30.30;22.00;;;;;;;10.01;51.68;98794.19;230775;1198;138279;-74
2023/02/18 04:45:18;;;;;;;4.40;2.00;;;;;;;10.03;52.21;98789.15;229350;1196;138827;-74
2023/02/18 04:50:22;;;;;;;3.20;1.30;;;;;;;10.02;53.17;98788.50;230702;1197;138886;-73
2023/02/18 04:55:26;;;;;;;2.70;1.00;;;;;;;10.01;53.77;98796.02;229900;1198;138848;-72
2023/02/18 05:00:29;;;;;;;2.00;1.10;;;;;;;9.95;53.08;98804.30;231785;1192;138399;-73
2023/02/18 05:05:34;;;;;;;84.30;59.10;;;;;;;9.94;53.18;98805.08;232195;1193;138701;-73
2023/02/18 05:10:38;;;;;;;3.60;1.60;;;;;;;9.92;53.80;98806.46;231129;1192;138692;-73
2023/02/18 05:15:42;;;;;;;3.80;1.20;;;;;;;9.87;53.13;98812.79;230088;1194;138650;-73
2023/02/18 05:20:45;;;;;;;10.30;6.90;;;;;;;9.82;51.17;98814.52;231557;1197;139728;-73
2023/02/18 05:25:49;;;;;;;1.40;0.90;;;;;;;9.77;48.38;98817.90;230607;1198;138657;-73
2023/02/18 05:30:52;;;;;;;2.20;0.70;;;;;;;9.67;45.10;98820.09;231023;1198;140733;-72
2023/02/18 05:35:56;;;;;;;2.70;0.80;;;;;;;9.65;43.85;98815.92;232876;1193;138477;-72
2023/02/18 05:40:59;;;;;;;1.50;0.80;;;;;;;9.59;43.39;98828.91;231564;1197;137930;-72
2023/02/18 05:46:03;;;;;;;1.80;0.50;;;;;;;9.55;41.55;98829.52;228729;1199;138821;-72
2023/02/18 05:51:06;;;;;;;1.10;0.70;;;;;;;9.51;41.23;98827.43;229298;1199;138506;-73
2023/02/18 05:56:10;;;;;;;1.30;0.70;;;;;;;9.50;41.12;98829.27;230841;1193;138864;-71
2023/02/18 06:01:14;;;;;;;3.20;0.90;;;;;;;9.46;41.72;98832.90;230503;1197;137835;-72
2023/02/18 06:06:18;;;;;;;1.20;0.60;;;;;;;9.41;42.35;98839.89;229602;1199;138278;-72
2023/02/18 06:11:21;;;;;;;1.80;0.50;;;;;;;9.44;42.99;98848.78;229660;1198;138686;-72
2023/02/18 06:16:25;;;;;;;1.70;0.80;;;;;;;9.42;41.45;98843.94;229792;1196;139100;-73
2023/02/18 06:21:30;;;;;;;6.30;0.90;;;;;;;9.46;41.90;98842.80;229701;1199;138758;-73
2023/02/18 06:26:33;;;;;;;4.10;1.00;;;;;;;9.44;41.81;98847.88;229563;1198;138488;-72
2023/02/18 06:31:37;;;;;;;1.60;0.90;;;;;;;9.42;40.32;98845.02;229357;1193;138391;-74
2023/02/18 06:36:42;;;;;;;5.80;1.00;;;;;;;9.45;40.72;98840.19;230713;1193;139356;-73
2023/02/18 06:41:46;;;;;;;2.90;0.80;;;;;;;9.52;40.96;98837.84;230435;1196;138888;-74
2023/02/18 06:46:50;;;;;;;1.90;0.80;;;;;;;9.53;40.56;98835.63;230366;1194;138267;-74
2023/02/18 06:51:53;;;;;;;5.30;0.80;;;;;;;9.55;40.27;98848.62;230715;1197;138151;-74
2023/02/18 06:56:57;;;;;;;2.90;0.80;;;;;;;9.60;39.66;98858.41;233582;1193;138998;-72
2023/02/18 07:02:00;;;;;;;1.80;0.50;;;;;;;9.66;38.67;98862.64;231041;1193;138718;-73
2023/02/18 07:07:04;;;;;;;2.00;0.60;;;;;;;9.68;38.03;98870.14;230176;1193;138364;-71
2023/02/18 07:12:08;;;;;;;3.80;0.90;;;;;;;9.67;37.86;98876.26;233810;1193;138334;-71
2023/02/18 07:17:12;;;;;;;4.50;0.70;;;;;;;9.71;38.08;98870.30;233883;1197;138381;-72
2023/02/18 07:22:15;;;;;;;1.50;0.50;;;;;;;9.74;38.04;98869.59;230445;1199;139064;-74
2023/02/18 07:27:19;;;;;;;1.40;0.70;;;;;;;9.79;37.36;98873.77;229348;1198;138399;-73
2023/02/18 07:32:23;;;;;;;2.80;0.70;;;;;;;9.79;37.01;98880.46;229719;1196;138693;-72
2023/02/18 07:37:28;;;;;;;3.30;0.70;;;;;;;9.74;36.36;98870.12;229384;1199;138121;-70
2023/02/18 07:42:32;;;;;;;1.00;0.60;;;;;;;9.73;36.40;98856.03;231431;1192;139102;-72
2023/02/18 07:47:36;;;;;;;2.10;0.70;;;;;;;9.77;36.56;98856.52;229658;1199;141621;-72
2023/02/18 07:52:40;;;;;;;1.70;0.60;;;;;;;9.76;36.50;98864.88;230073;1198;138299;-71
2023/02/18 07:58:01;;;;;;;2.80;0.80;;;;;;;9.79;36.24;98858.54;230567;1193;139982;-72
2023/02/18 08:03:04;;;;;;;1.60;0.70;;;;;;;9.79;36.70;98855.88;229472;1197;138837;-71
2023/02/18 08:08:13;;;;;;;1.30;0.70;;;;;;;9.75;36.89;98855.37;230810;1197;138727;-71
2023/02/18 08:13:17;;;;;;;1.50;0.70;;;;;;;9.84;36.92;98861.39;229679;1199;138357;-71
2023/02/18 08:18:22;;;;;;;3.20;0.70;;;;;;;9.90;36.30;98861.17;232094;1198;138631;-72
2023/02/18 08:23:26;;;;;;;;;;;;;;;9.92;35.95;98867.29;229477;1201;138316;-72
2023/02/18 08:28:30;;;;;;;1.80;0.90;;;;;;;9.86;36.29;98868.52;231900;1196;125830;-71
2023/02/18 08:33:33;;;;;;;1.50;0.70;;;;;;;9.86;36.78;98866.75;230826;1199;138758;-71
2023/02/18 08:38:37;;;;;;;1.90;1.00;;;;;;;9.90;36.57;98869.48;229614;1199;138361;-73
2023/02/18 08:43:41;;;;;;;2.50;0.70;;;;;;;9.92;36.38;98872.02;230403;1193;138936;-73
2023/02/18 08:48:45;;;;;;;1.70;0.80;;;;;;;10.02;36.08;98869.64;231601;1195;138251;-71
2023/02/18 08:53:49;;;;;;;1.90;1.00;;;;;;;10.02;35.71;98875.86;231498;1196;139841;-71
2023/02/18 08:58:52;;;;;;;3.30;1.00;;;;;;;10.03;36.05;98882.90;229506;1197;140907;-71
2023/02/18 09:03:56;;;;;;;3.00;0.80;;;;;;;10.09;36.02;98884.45;229445;1199;138477;-71
2023/02/18 09:09:00;;;;;;;5.00;1.00;;;;;;;10.12;34.75;98880.01;230172;1194;138240;-72
2023/02/18 09:14:04;;;;;;;2.20;1.10;;;;;;;10.12;35.54;98876.13;229733;1194;139154;-72
2023/02/18 09:19:08;;;;;;;1.30;0.80;;;;;;;10.18;35.91;98871.66;230564;1197;138776;-73
2023/02/18 09:24:11;;;;;;;3.90;1.40;;;;;;;10.17;35.66;98880.38;230036;1199;138955;-73
2023/02/18 09:29:17;;;;;;;1.80;1.00;;;;;;;10.15;35.45;98888.31;229869;1194;138989;-73
2023/02/18 09:34:20;;;;;;;2.90;1.10;;;;;;;10.15;35.52;98884.05;231478;1193;138475;-70
2023/02/18 09:39:24;;;;;;;2.90;1.00;;;;;;;10.14;35.83;98883.58;229246;1197;138126;-71
2023/02/18 09:44:41;;;;;;;3.00;1.00;;;;;;;10.11;36.04;98891.21;229113;1197;138745;-72
2023/02/18 09:49:53;;;;;;;2.30;0.80;;;;;;;10.17;36.47;98877.20;229227;1199;139771;-70
2023/02/18 09:54:57;;;;;;;6.10;2.00;;;;;;;10.27;37.41;98876.45;231110;1196;139192;-70
2023/02/18 10:00:24;;;;;;;2.90;1.20;;;;;;;10.32;36.80;98878.97;234926;1192;139920;-71
2023/02/18 10:05:29;;;;;;;3.90;1.20;;;;;;;10.35;37.44;98863.51;231219;1196;138367;-70
2023/02/18 10:10:39;;;;;;;2.40;1.00;;;;;;;10.33;37.36;98862.91;233437;1196;138638;-71
2023/02/18 10:15:43;;;;;;;3.80;1.20;;;;;;;10.40;37.35;98852.70;229538;1194;139422;-69
2023/02/18 10:20:49;;;;;;;3.30;1.30;;;;;;;10.47;37.74;98844.48;229779;1196;138543;-71
2023/02/18 10:25:54;;;;;;;5.30;1.10;;;;;;;10.53;38.53;98833.63;231518;1193;139054;-70
2023/02/18 10:31:09;;;;;;;4.00;1.20;;;;;;;10.61;39.05;98826.73;234882;1192;138287;-70
2023/02/18 10:36:16;;;;;;;;;;;;;;;10.63;39.92;98823.92;229339;1196;139199;-71
2023/02/18 10:41:51;;;;;;;2.50;1.10;;;;;;;10.69;40.31;98824.77;231599;1193;125323;-72
2023/02/18 10:47:26;;;;;;;3.80;1.20;;;;;;;10.70;39.59;98818.53;233778;1193;138384;-69
2023/02/18 10:52:34;;;;;;;3.80;1.30;;;;;;;10.73;39.87;98817.05;230845;1193;139134;-71
2023/02/18 10:57:52;;;;;;;4.80;1.40;;;;;;;10.69;39.70;98821.60;232359;1193;141299;-71
2023/02/18 11:03:19;;;;;;;4.30;1.20;;;;;;;10.63;40.07;98820.92;229949;1196;138381;-70
2023/02/18 11:08:27;;;;;;;4.00;1.50;;;;;;;10.49;40.94;98808.69;230718;1196;138780;-72
2023/02/18 11:13:31;;;;;;;16.20;9.30;;;;;;;10.45;42.69;98810.77;230255;1196;139837;-71
2023/02/18 11:18:47;;;;;;;3.70;1.50;;;;;;;10.43;43.88;98808.58;229328;1193;139105;-70
2023/02/18 11:23:52;;;;;;;5.40;1.90;;;;;;;10.29;44.15;98792.95;231970;1193;138653;-71
2023/02/18 11:29:05;;;;;;;;;;;;;;;10.18;45.10;98791.33;232107;1192;138513;-71
2023/02/18 11:34:15;;;;;;;3.60;1.90;;;;;;;9.97;46.40;98788.77;233011;1192;125811;-71
2023/02/18 11:39:25;;;;;;;6.00;1.50;;;;;;;9.90;47.12;98780.17;232125;1192;138506;-71
2023/02/18 11:44:33;;;;;;;4.70;1.40;;;;;;;10.00;47.50;98769.13;230253;1196;139026;-70
2023/02/18 11:49:37;;;;;;;4.20;1.50;;;;;;;10.06;47.08;98762.52;233514;1192;139033;-71
2023/02/18 11:54:40;;;;;;;3.50;1.60;;;;;;;10.10;47.29;98762.08;230558;1193;139034;-70
2023/02/18 11:59:44;;;;;;;5.70;1.70;;;;;;;10.16;47.57;98766.11;229037;1196;139376;-71
2023/02/18 12:05:12;;;;;;;5.20;1.40;;;;;;;10.22;48.62;98759.34;229960;1196;138968;-72
2023/02/18 12:10:26;;;;;;;3.10;1.50;;;;;;;10.20;49.77;98761.96;232217;1196;138841;-71
2023/02/18 12:15:52;;;;;;;2.90;1.50;;;;;;;9.98;51.01;98761.80;232611;1192;138802;-71
2023/02/18 12:21:12;;;;;;;3.60;1.50;;;;;;;9.83;51.85;98750.33;234339;1192;138428;-71
2023/02/18 12:26:21;;;;;;;5.00;1.50;;;;;;;9.74;52.23;98749.65;232187;1195;138653;-73
2023/02/18 12:31:49;;;;;;;5.40;1.70;;;;;;;9.78;53.07;98749.63;229551;1196;138221;-71
2023/02/18 12:37:06;;;;;;;4.30;1.70;;;;;;;9.72;53.62;98732.98;230213;1191;138261;-71
2023/02/18 12:42:27;;;;;;;4.80;2.00;;;;;;;9.67;54.27;98732.38;232958;1192;138248;-72
2023/02/18 12:47:43;;;;;;;4.10;1.60;;;;;;;9.60;54.56;98721.84;234125;1192;138505;-72
2023/02/18 12:53:13;;;;;;;5.70;1.50;;;;;;;9.53;54.98;98708.82;233884;1192;138402;-72
2023/02/18 12:58:49;;;;;;;3.30;1.50;;;;;;;9.42;55.91;98697.85;231429;1195;138250;-71
2023/02/18 13:04:13;;;;;;;12.30;4.70;;;;;;;9.47;56.26;98684.80;232220;1193;138664;-69
2023/02/18 13:09:54;;;;;;;4.50;1.80;;;;;;;9.48;56.63;98666.84;229539;1193;141072;-71
2023/02/18 13:15:24;;;;;;;4.80;1.70;;;;;;;9.54;56.99;98646.61;230294;1196;138068;-71
2023/02/18 13:20:44;;;;;;;5.30;2.10;;;;;;;9.49;57.73;98649.98;231024;1196;138732;-71
2023/02/18 13:25:52;;;;;;;3.90;1.90;;;;;;;9.49;58.16;98635.40;232544;1192;138738;-72
2023/02/18 13:31:41;;;;;;;4.70;2.00;;;;;;;9.49;58.78;98629.55;232897;1196;138123;-72
2023/02/18 13:36:55;;;;;;;6.00;2.20;;;;;;;9.39;59.14;98615.88;232966;1193;138193;-71
2023/02/18 13:42:36;;;;;;;4.20;2.20;;;;;;;9.43;59.68;98592.81;231147;1193;137978;-71
2023/02/18 13:47:44;;;;;;;5.50;2.50;;;;;;;9.54;59.85;98586.93;232701;1191;138449;-71
2023/02/18 13:52:49;;;;;;;5.20;2.20;;;;;;;9.64;59.57;98583.65;231321;1193;138567;-70
2023/02/18 13:57:54;;;;;;;6.20;2.40;;;;;;;9.63;59.39;98577.15;232816;1192;138409;-71
2023/02/18 14:03:01;;;;;;;5.50;2.10;;;;;;;9.65;59.36;98557.19;233087;1192;139327;-72
2023/02/18 14:08:13;;;;;;;4.80;2.20;;;;;;;9.65;59.49;98548.30;230118;1196;138363;-71
2023/02/18 14:13:18;;;;;;;8.10;2.50;;;;;;;9.61;59.72;98531.94;230409;1193;138616;-71
2023/02/18 14:18:45;;;;;;;7.50;2.00;;;;;;;9.56;60.07;98517.41;230707;1192;138842;-71
2023/02/18 14:23:51;;;;;;;6.20;2.60;;;;;;;9.49;60.34;98510.24;229436;1197;139089;-72
2023/02/18 14:29:00;;;;;;;8.70;2.90;;;;;;;9.38;60.92;98503.85;231164;1193;139031;-70
2023/02/18 14:34:12;;;;;;;8.50;2.90;;;;;;;9.24;61.21;98489.55;230826;1192;138822;-72
2023/02/18 14:39:31;;;;;;;6.40;2.70;;;;;;;9.21;61.81;98474.58;233621;1192;138790;-72
2023/02/18 14:44:56;;;;;;;8.70;2.70;;;;;;;9.18;61.80;98462.52;232891;1193;139096;-74
2023/02/18 14:50:02;;;;;;;8.60;3.20;;;;;;;9.17;62.11;98451.44;234477;1192;139199;-72
2023/02/18 14:55:14;;;;;;;6.60;2.80;;;;;;;9.19;62.37;98443.71;229917;1196;139245;-73
2023/02/18 15:00:21;;;;;;;5.80;3.10;;;;;;;9.09;62.74;98430.23;230951;1192;138404;-71
2023/02/18 15:05:28;;;;;;;6.00;3.30;;;;;;;9.09;63.12;98412.00;231594;1193;138739;-71
2023/02/18 15:10:42;;;;;;;8.80;3.80;;;;;;;9.00;63.45;98409.41;231919;1192;138725;-72
2023/02/18 15:15:49;;;;;;;8.30;3.60;;;;;;;8.95;63.66;98394.33;232718;1192;138726;-70
2023/02/18 15:20:53;;;;;;;8.10;4.20;;;;;;;8.85;64.40;98390.40;230487;1196;138377;-71
2023/02/18 15:25:57;;;;;;;7.60;4.10;;;;;;;8.85;64.52;98371.83;232215;1192;138897;-72
2023/02/18 15:31:02;;;;;;;7.00;4.10;;;;;;;8.84;64.73;98349.23;229037;1196;138105;-72
2023/02/18 15:36:18;;;;;;;;;;;;;;;8.86;64.85;98337.44;232894;1192;139128;-71
2023/02/18 15:41:21;;;;;;;7.40;3.90;;;;;;;8.91;65.09;98321.92;231886;1193;125176;-70
2023/02/18 15:46:26;;;;;;;11.30;4.80;;;;;;;8.93;65.18;98313.09;230254;1192;138594;-73
2023/02/18 15:51:30;;;;;;;12.50;4.40;;;;;;;8.91;65.35;98294.30;230501;1193;138364;-71
2023/02/18 15:57:12;;;;;;;11.20;4.70;;;;;;;8.89;65.75;98275.12;230078;1195;101110;-71
2023/02/18 16:02:22;;;;;;;12.90;5.10;;;;;;;8.79;66.16;98260.05;229758;1195;137865;-72
2023/02/18 16:07:54;;;;;;;23.40;16.50;;;;;;;8.70;66.96;98252.33;230376;1193;139413;-68
2023/02/18 16:13:01;;;;;;;12.60;6.10;;;;;;;8.72;67.30;98246.54;229567;1197;138588;-70
2023/02/18 16:18:18;;;;;;;13.80;5.20;;;;;;;8.72;67.50;98240.36;229813;1198;138840;-70
2023/02/18 16:24:02;;;;;;;12.70;6.00;;;;;;;8.70;67.83;98238.17;230419;1195;138055;-73
2023/02/18 16:29:36;;;;;;;12.30;6.80;;;;;;;8.74;68.32;98237.40;229884;1195;138725;-69
2023/02/18 16:34:39;;;;;;;164.10;118.30;;;;;;;8.84;68.47;98228.10;229636;1193;138298;-71
2023/02/18 16:39:43;;;;;;;14.90;8.10;;;;;;;8.99;68.53;98220.88;229611;1195;139077;-69
2023/02/18 16:44:49;;;;;;;16.10;8.40;;;;;;;9.06;68.45;98214.57;230920;1193;139115;-74
2023/02/18 16:49:57;;;;;;;16.60;8.10;;;;;;;9.08;68.15;98225.57;229254;1196;138356;-71
2023/02/18 16:56:22;;;;;;;14.60;8.50;;;;;;;8.98;68.95;98220.26;229500;1195;138858;-73
2023/02/18 17:01:29;;;;;;;12.70;8.30;;;;;;;8.92;69.47;98226.27;229911;1195;140186;-73
2023/02/18 17:06:33;;;;;;;15.20;8.90;;;;;;;8.91;69.89;98223.52;229917;1192;138034;-72
2023/02/18 17:12:16;;;;;;;15.70;9.20;;;;;;;8.96;70.44;98231.83;229445;1195;139640;-73
2023/02/18 17:17:21;;;;;;;13.80;9.40;;;;;;;9.09;70.91;98224.04;229807;1207;100544;-72
2023/02/18 17:22:35;;;;;;;21.00;11.40;;;;;;;9.17;71.51;98215.04;229971;1196;138553;-74
2023/02/18 17:28:18;;;;;;;20.90;11.60;;;;;;;9.29;71.43;98214.73;231175;1193;139495;-71
2023/02/18 17:33:24;;;;;;;22.40;14.80;;;;;;;9.30;71.94;98214.84;230048;1193;139369;-71
2023/02/18 17:38:59;;;;;;;18.70;12.20;;;;;;;9.36;72.89;98209.66;230381;1193;138953;-75
2023/02/18 17:44:40;;;;;;;13.20;8.70;;;;;;;9.48;73.71;98205.61;230434;1193;139436;-75
2023/02/18 17:50:50;;;;;;;11.90;7.40;;;;;;;9.64;74.46;98203.91;230293;1193;139387;-74
2023/02/18 17:55:59;;;;;;;9.30;5.60;;;;;;;9.92;75.31;98204.91;229615;1196;138271;-71
2023/02/18 18:01:09;;;;;;;7.20;4.90;;;;;;;10.16;75.06;98203.48;230192;1196;139068;-71
2023/02/18 18:06:18;;;;;;;5.90;4.10;;;;;;;10.30;74.81;98208.20;229745;1197;139767;-71
2023/02/18 18:11:26;;;;;;;15.10;9.30;;;;;;;10.43;74.81;98223.89;230790;1193;139009;-72
2023/02/18 18:25:21;;;;;;;8.00;4.70;;;;;;;10.46;75.00;98239.63;230100;1195;138164;-72
2023/02/18 18:31:02;;;;;;;6.20;4.80;;;;;;;10.59;74.46;98248.58;229840;1195;114914;-70
2023/02/18 18:36:24;;;;;;;6.60;4.70;;;;;;;10.63;74.13;98239.77;229751;1195;107322;-68
2023/02/18 18:42:36;;;;;;;7.90;5.50;;;;;;;10.62;73.81;98255.05;229905;1195;101275;-73
2023/02/18 18:47:42;;;;;;;6.40;4.70;;;;;;;10.64;73.62;98254.19;230425;1193;139069;-71
2023/02/18 18:53:31;;;;;;;7.80;5.40;;;;;;;10.66;73.07;98265.60;230335;1195;106345;-71
2023/02/18 19:05:59;;;;;;;7.60;4.30;;;;;;;10.72;72.73;98269.05;230107;1193;139503;-71
2023/02/18 19:11:03;;;;;;;27.50;19.80;;;;;;;10.73;72.12;98272.38;230857;1192;139631;-68
2023/02/18 19:16:28;;;;;;;7.10;4.60;;;;;;;10.75;71.53;98279.66;232516;1192;140375;-72
2023/02/18 19:21:32;;;;;;;8.10;5.50;;;;;;;10.78;71.35;98275.73;229195;1196;138776;-70
2023/02/18 19:26:36;;;;;;;7.70;4.90;;;;;;;10.77;71.27;98277.73;230132;1193;139682;-71
2023/02/18 19:31:39;;;;;;;6.80;4.60;;;;;;;10.77;70.76;98292.29;232790;1192;139348;-70
2023/02/18 19:36:45;;;;;;;8.00;4.90;;;;;;;10.77;70.27;98301.85;230749;1196;139307;-71
2023/02/18 19:41:49;;;;;;;7.20;4.60;;;;;;;10.74;70.29;98298.36;233014;1193;139100;-70
2023/02/18 19:46:54;;;;;;;13.30;4.30;;;;;;;10.74;69.60;98307.58;231544;1196;139538;-72
2023/02/18 19:52:02;;;;;;;4.90;3.20;;;;;;;10.72;68.74;98318.54;230152;1195;139703;-70
2023/02/18 19:57:06;;;;;;;6.60;3.20;;;;;;;10.70;68.58;98317.96;229343;1199;138920;-71
2023/02/18 20:02:20;;;;;;;5.50;2.70;;;;;;;10.71;68.04;98333.70;229754;1195;138412;-71
2023/02/18 20:07:23;;;;;;;5.50;2.80;;;;;;;10.70;67.67;98331.13;229269;1196;138933;-72
2023/02/18 20:12:28;;;;;;;5.00;2.20;;;;;;;10.66;67.69;98345.28;230620;1196;138225;-71
2023/02/18 20:17:31;;;;;;;3.50;2.00;;;;;;;10.53;67.77;98345.46;229501;1192;138470;-71
2023/02/18 20:22:35;;;;;;;4.40;2.30;;;;;;;10.55;67.96;98352.47;229358;1192;138882;-72
2023/02/18 20:27:39;;;;;;;4.70;2.00;;;;;;;10.53;68.10;98357.02;231223;1193;138548;-74
2023/02/18 20:33:02;;;;;;;3.20;2.00;;;;;;;10.48;68.17;98369.83;229972;1196;139972;-70
2023/02/18 20:38:06;;;;;;;3.50;2.00;;;;;;;10.48;68.32;98382.44;230150;1196;138288;-69
2023/02/18 20:43:09;;;;;;;2.90;1.60;;;;;;;10.47;68.72;98398.75;230169;1193;138566;-69
2023/02/18 20:48:13;;;;;;;4.30;1.80;;;;;;;10.43;69.18;98412.73;230371;1195;139636;-70
2023/02/18 20:53:16;;;;;;;4.80;2.20;;;;;;;10.39;69.61;98417.60;230041;1192;138922;-70
2023/02/18 20:58:20;;;;;;;3.60;1.90;;;;;;;10.32;69.57;98423.41;230717;1195;139717;-70
2023/02/18 21:03:24;;;;;;;3.20;2.00;;;;;;;10.23;70.03;98442.85;231103;1196;138877;-71
2023/02/18 21:08:28;;;;;;;3.60;2.00;;;;;;;10.16;70.68;98458.56;230747;1197;139128;-71
2023/02/18 21:13:32;;;;;;;3.50;1.90;;;;;;;10.18;71.05;98472.78;230265;1193;139600;-70
2023/02/18 21:18:36;;;;;;;3.00;1.80;;;;;;;10.14;70.67;98458.87;229618;1196;139950;-69
2023/02/18 21:23:40;;;;;;;3.90;2.30;;;;;;;10.04;70.95;98463.81;229367;1194;139275;-70
2023/02/18 21:28:52;;;;;;;3.30;2.10;;;;;;;10.02;70.75;98466.08;229563;1196;138970;-69
2023/02/18 21:33:56;;;;;;;3.70;1.70;;;;;;;10.06;70.79;98477.48;230104;1196;139092;-69
2023/02/18 21:39:03;;;;;;;3.40;2.10;;;;;;;10.08;70.21;98492.29;230849;1193;139837;-70
2023/02/18 21:44:07;;;;;;;3.10;1.90;;;;;;;10.12;70.00;98491.08;229062;1206;140337;-70
2023/02/18 21:49:11;;;;;;;2.70;1.60;;;;;;;10.15;69.84;98493.23;230291;1196;140966;-68
2023/02/18 21:54:16;;;;;;;3.20;1.80;;;;;;;10.09;69.73;98504.24;229330;1199;138812;-72
2023/02/18 21:59:20;;;;;;;4.20;1.50;;;;;;;9.99;69.92;98511.62;230949;1196;138563;-71
2023/02/18 22:04:24;;;;;;;3.30;1.90;;;;;;;10.01;69.86;98529.10;232225;1196;139329;-69
2023/02/18 22:09:28;;;;;;;3.00;1.70;;;;;;;10.04;69.70;98535.09;230281;1192;139959;-71
2023/02/18 22:14:31;;;;;;;3.70;1.80;;;;;;;9.99;69.50;98548.70;230610;1196;138742;-72
2023/02/18 22:19:35;;;;;;;4.30;2.20;;;;;;;9.85;69.98;98551.20;229171;1196;138559;-70
2023/02/18 22:24:39;;;;;;;2.70;1.60;;;;;;;9.76;70.13;98543.89;229950;1193;138651;-70
2023/02/18 22:29:43;;;;;;;4.90;1.90;;;;;;;9.73;70.52;98553.64;229487;1192;139505;-71
2023/02/18 22:34:46;;;;;;;2.90;2.10;;;;;;;9.70;70.19;98564.09;229920;1198;138865;-71
2023/02/18 22:39:50;;;;;;;3.50;1.70;;;;;;;9.65;70.40;98574.34;229494;1198;138321;-72
2023/02/18 22:44:55;;;;;;;2.80;1.60;;;;;;;9.62;70.29;98592.11;229497;1193;138195;-70
2023/02/18 22:49:59;;;;;;;3.10;1.50;;;;;;;9.58;69.95;98604.38;229394;1193;138820;-72
2023/02/18 22:55:03;;;;;;;3.00;1.20;;;;;;;9.49;69.46;98598.77;230288;1196;138979;-71
2023/02/18 23:00:09;;;;;;;4.50;1.40;;;;;;;9.48;69.23;98605.71;230065;1196;139000;-71
2023/02/18 23:05:12;;;;;;;3.40;1.80;;;;;;;9.48;69.41;98611.39;229427;1206;139057;-71
2023/02/18 23:10:16;;;;;;;3.30;1.50;;;;;;;9.48;69.38;98621.48;230515;1192;138677;-70
2023/02/18 23:15:20;;;;;;;4.00;1.60;;;;;;;9.46;69.68;98625.89;233424;1192;138314;-73
2023/02/18 23:25:45;;;;;;;2.40;1.50;;;;;;;9.58;69.65;98654.52;230863;1195;138661;-72
2023/02/18 23:30:49;;;;;;;4.00;1.60;;;;;;;9.52;69.58;98668.92;231555;1192;138379;-70
2023/02/18 23:35:52;;;;;;;1.90;1.50;;;;;;;9.53;70.12;98674.99;231379;1193;138400;-71
2023/02/18 23:40:56;;;;;;;1.80;1.40;;;;;;;9.55;70.11;98685.71;231688;1197;138413;-71
2023/02/18 23:45:59;;;;;;;3.40;1.90;;;;;;;9.49;70.20;98693.67;231494;1193;138415;-70
2023/02/18 23:51:05;;;;;;;1.90;1.20;;;;;;;9.42;70.18;98699.77;232591;1194;139505;-70
2023/02/18 23:56:13;;;;;;;2.50;1.30;;;;;;;9.37;69.86;98699.37;234689;1193;138888;-69
